Longueuil, Canada
Current Conditions -  °F | °C
As of 12:00 PM on Tuesday 27 Jan 2015 (Local Time) from CYHU Reporting Station
Overcast Overcast  
Wind Chill: -14°   Ceiling: 15000
Heat Index:   Visibility: 8mi
Dew Point: -2°   Wind: 22mph
Humidity: 67%   Direction: 20°NNE
Pressure: 30.06"   Gusts: 31mph
Location:  45.54°N, 73.49°W
Report Text: CYHU 271700Z AUTO 02019G27KT 8SM OVC150 M14/M19 A3006 RMK SLP182
Loading
Personal Weather Stations






























Interactive Weather Map New forecast layout! Learn more

10-Day Weather Forecast

Advertisements
Track Severe Weather on mobile